sensor_id;sensor_type;location;lat;lon;timestamp;P1;durP1;ratioP1;P2;durP2;ratioP2
51732;SDS011;39139;53.144;6.244;2022-10-16T00:00:56;5.75;;;1.40;;
51732;SDS011;39139;53.144;6.244;2022-10-16T00:03:22;5.50;;;1.20;;
51732;SDS011;39139;53.144;6.244;2022-10-16T00:05:48;11.88;;;1.73;;
51732;SDS011;39139;53.144;6.244;2022-10-16T00:08:13;4.30;;;1.35;;
51732;SDS011;39139;53.144;6.244;2022-10-16T00:10:39;3.45;;;1.33;;
51732;SDS011;39139;53.144;6.244;2022-10-16T00:13:05;3.85;;;1.40;;
51732;SDS011;39139;53.144;6.244;2022-10-16T00:15:35;7.13;;;1.40;;
51732;SDS011;39139;53.144;6.244;2022-10-16T00:18:02;6.20;;;1.10;;
51732;SDS011;39139;53.144;6.244;2022-10-16T00:20:29;5.22;;;1.10;;
51732;SDS011;39139;53.144;6.244;2022-10-16T00:22:56;3.85;;;1.10;;
51732;SDS011;39139;53.144;6.244;2022-10-16T00:25:22;8.82;;;1.25;;
51732;SDS011;39139;53.144;6.244;2022-10-16T00:27:48;6.32;;;1.38;;
51732;SDS011;39139;53.144;6.244;2022-10-16T00:30:13;5.60;;;1.40;;
51732;SDS011;39139;53.144;6.244;2022-10-16T00:32:39;7.28;;;1.13;;
51732;SDS011;39139;53.144;6.244;2022-10-16T00:35:05;5.97;;;1.50;;
51732;SDS011;39139;53.144;6.244;2022-10-16T00:37:31;5.13;;;1.30;;
51732;SDS011;39139;53.144;6.244;2022-10-16T00:39:57;5.25;;;1.13;;
51732;SDS011;39139;53.144;6.244;2022-10-16T00:42:22;5.28;;;1.45;;
51732;SDS011;39139;53.144;6.244;2022-10-16T00:44:50;3.08;;;1.45;;
51732;SDS011;39139;53.144;6.244;2022-10-16T00:50:09;4.93;;;1.63;;
51732;SDS011;39139;53.144;6.244;2022-10-16T00:52:36;7.13;;;1.20;;
51732;SDS011;39139;53.144;6.244;2022-10-16T00:55:07;6.18;;;1.67;;
51732;SDS011;39139;53.144;6.244;2022-10-16T00:57:34;4.70;;;1.02;;
51732;SDS011;39139;53.144;6.244;2022-10-16T01:00:00;4.65;;;1.00;;
51732;SDS011;39139;53.144;6.244;2022-10-16T01:02:28;4.90;;;1.23;;
51732;SDS011;39139;53.144;6.244;2022-10-16T01:04:53;8.30;;;1.52;;
51732;SDS011;39139;53.144;6.244;2022-10-16T01:07:43;4.88;;;1.45;;
51732;SDS011;39139;53.144;6.244;2022-10-16T01:17:58;4.85;;;0.80;;
51732;SDS011;39139;53.144;6.244;2022-10-16T01:20:30;3.80;;;1.10;;
51732;SDS011;39139;53.144;6.244;2022-10-16T01:22:59;7.03;;;0.90;;
51732;SDS011;39139;53.144;6.244;2022-10-16T01:28:11;5.65;;;0.85;;
51732;SDS011;39139;53.144;6.244;2022-10-16T01:30:40;5.38;;;1.13;;
51732;SDS011;39139;53.144;6.244;2022-10-16T01:33:10;3.78;;;0.88;;
51732;SDS011;39139;53.144;6.244;2022-10-16T01:35:47;3.50;;;0.90;;
51732;SDS011;39139;53.144;6.244;2022-10-16T01:38:31;8.80;;;1.40;;
51732;SDS011;39139;53.144;6.244;2022-10-16T01:41:10;4.18;;;0.90;;
51732;SDS011;39139;53.144;6.244;2022-10-16T01:43:46;4.60;;;1.00;;
51732;SDS011;39139;53.144;6.244;2022-10-16T01:46:18;4.10;;;1.08;;
51732;SDS011;39139;53.144;6.244;2022-10-16T01:48:46;1.38;;;1.20;;
51732;SDS011;39139;53.144;6.244;2022-10-16T01:51:13;4.72;;;1.33;;
51732;SDS011;39139;53.144;6.244;2022-10-16T01:53:41;4.88;;;1.35;;
51732;SDS011;39139;53.144;6.244;2022-10-16T01:56:12;3.90;;;1.42;;
51732;SDS011;39139;53.144;6.244;2022-10-16T01:58:42;2.65;;;1.30;;
51732;SDS011;39139;53.144;6.244;2022-10-16T02:01:16;3.10;;;1.35;;
51732;SDS011;39139;53.144;6.244;2022-10-16T02:03:46;5.57;;;1.23;;
51732;SDS011;39139;53.144;6.244;2022-10-16T02:06:17;8.77;;;1.35;;
51732;SDS011;39139;53.144;6.244;2022-10-16T02:08:43;5.28;;;1.27;;
51732;SDS011;39139;53.144;6.244;2022-10-16T02:11:09;5.82;;;1.70;;
51732;SDS011;39139;53.144;6.244;2022-10-16T02:13:41;4.75;;;1.02;;
51732;SDS011;39139;53.144;6.244;2022-10-16T02:16:12;4.28;;;1.20;;
51732;SDS011;39139;53.144;6.244;2022-10-16T02:18:39;5.32;;;1.42;;
51732;SDS011;39139;53.144;6.244;2022-10-16T02:21:08;2.63;;;1.02;;
51732;SDS011;39139;53.144;6.244;2022-10-16T02:26:12;6.80;;;1.42;;
51732;SDS011;39139;53.144;6.244;2022-10-16T02:28:42;3.58;;;1.27;;
51732;SDS011;39139;53.144;6.244;2022-10-16T02:31:12;4.93;;;1.00;;
51732;SDS011;39139;53.144;6.244;2022-10-16T02:33:43;5.30;;;1.48;;
51732;SDS011;39139;53.144;6.244;2022-10-16T02:36:11;11.38;;;1.60;;
51732;SDS011;39139;53.144;6.244;2022-10-16T02:38:37;3.95;;;1.63;;
51732;SDS011;39139;53.144;6.244;2022-10-16T02:41:04;1.85;;;0.90;;
51732;SDS011;39139;53.144;6.244;2022-10-16T02:43:31;3.85;;;1.25;;
51732;SDS011;39139;53.144;6.244;2022-10-16T02:45:58;2.08;;;1.10;;
51732;SDS011;39139;53.144;6.244;2022-10-16T02:48:24;1.95;;;1.08;;
51732;SDS011;39139;53.144;6.244;2022-10-16T02:50:50;4.88;;;1.23;;
51732;SDS011;39139;53.144;6.244;2022-10-16T02:53:16;1.88;;;0.93;;
51732;SDS011;39139;53.144;6.244;2022-10-16T02:55:41;3.72;;;1.38;;
51732;SDS011;39139;53.144;6.244;2022-10-16T02:58:07;4.53;;;1.08;;
51732;SDS011;39139;53.144;6.244;2022-10-16T03:00:33;4.47;;;1.65;;
51732;SDS011;39139;53.144;6.244;2022-10-16T03:02:58;3.83;;;1.35;;
51732;SDS011;39139;53.144;6.244;2022-10-16T03:05:24;4.28;;;1.60;;
51732;SDS011;39139;53.144;6.244;2022-10-16T03:07:49;3.92;;;1.50;;
51732;SDS011;39139;53.144;6.244;2022-10-16T03:10:15;2.83;;;1.65;;
51732;SDS011;39139;53.144;6.244;2022-10-16T03:12:41;7.13;;;1.33;;
51732;SDS011;39139;53.144;6.244;2022-10-16T03:15:06;4.90;;;1.23;;
51732;SDS011;39139;53.144;6.244;2022-10-16T03:17:33;2.67;;;0.93;;
51732;SDS011;39139;53.144;6.244;2022-10-16T03:19:58;3.00;;;1.40;;
51732;SDS011;39139;53.144;6.244;2022-10-16T03:22:24;3.55;;;1.42;;
51732;SDS011;39139;53.144;6.244;2022-10-16T03:24:50;4.97;;;1.50;;
51732;SDS011;39139;53.144;6.244;2022-10-16T03:27:15;1.80;;;1.27;;
51732;SDS011;39139;53.144;6.244;2022-10-16T03:29:41;4.90;;;1.50;;
51732;SDS011;39139;53.144;6.244;2022-10-16T03:32:06;1.52;;;1.35;;
51732;SDS011;39139;53.144;6.244;2022-10-16T03:34:32;3.08;;;1.17;;
51732;SDS011;39139;53.144;6.244;2022-10-16T03:36:58;1.60;;;1.10;;
51732;SDS011;39139;53.144;6.244;2022-10-16T03:39:23;4.55;;;1.50;;
51732;SDS011;39139;53.144;6.244;2022-10-16T03:41:49;9.45;;;1.52;;
51732;SDS011;39139;53.144;6.244;2022-10-16T03:44:15;4.38;;;1.27;;
51732;SDS011;39139;53.144;6.244;2022-10-16T03:46:40;1.13;;;0.70;;
51732;SDS011;39139;53.144;6.244;2022-10-16T03:49:06;2.38;;;1.10;;
51732;SDS011;39139;53.144;6.244;2022-10-16T03:51:32;3.28;;;1.40;;
51732;SDS011;39139;53.144;6.244;2022-10-16T03:53:57;1.75;;;1.17;;
51732;SDS011;39139;53.144;6.244;2022-10-16T03:56:23;2.72;;;1.10;;
51732;SDS011;39139;53.144;6.244;2022-10-16T03:58:48;1.35;;;0.77;;
51732;SDS011;39139;53.144;6.244;2022-10-16T04:01:14;3.03;;;1.20;;
51732;SDS011;39139;53.144;6.244;2022-10-16T04:03:40;1.40;;;0.90;;
51732;SDS011;39139;53.144;6.244;2022-10-16T04:06:06;2.03;;;1.10;;
51732;SDS011;39139;53.144;6.244;2022-10-16T04:08:31;4.00;;;1.35;;
51732;SDS011;39139;53.144;6.244;2022-10-16T04:11:00;2.78;;;1.25;;
51732;SDS011;39139;53.144;6.244;2022-10-16T04:13:26;1.90;;;1.17;;
51732;SDS011;39139;53.144;6.244;2022-10-16T04:15:51;4.53;;;0.77;;
51732;SDS011;39139;53.144;6.244;2022-10-16T04:18:17;4.80;;;1.75;;
51732;SDS011;39139;53.144;6.244;2022-10-16T04:20:43;2.10;;;0.95;;
51732;SDS011;39139;53.144;6.244;2022-10-16T04:23:08;0.85;;;0.85;;
51732;SDS011;39139;53.144;6.244;2022-10-16T04:25:34;3.20;;;1.38;;
51732;SDS011;39139;53.144;6.244;2022-10-16T04:27:59;3.50;;;1.10;;
51732;SDS011;39139;53.144;6.244;2022-10-16T04:30:25;1.98;;;1.00;;
51732;SDS011;39139;53.144;6.244;2022-10-16T04:32:51;3.83;;;1.20;;
51732;SDS011;39139;53.144;6.244;2022-10-16T04:35:17;3.10;;;1.35;;
51732;SDS011;39139;53.144;6.244;2022-10-16T04:37:44;2.83;;;1.02;;
51732;SDS011;39139;53.144;6.244;2022-10-16T04:40:10;1.60;;;1.20;;
51732;SDS011;39139;53.144;6.244;2022-10-16T04:42:36;1.98;;;1.10;;
51732;SDS011;39139;53.144;6.244;2022-10-16T04:45:02;3.47;;;1.17;;
51732;SDS011;39139;53.144;6.244;2022-10-16T04:47:28;1.30;;;1.13;;
51732;SDS011;39139;53.144;6.244;2022-10-16T04:49:54;5.30;;;1.40;;
51732;SDS011;39139;53.144;6.244;2022-10-16T04:52:19;3.03;;;0.98;;
51732;SDS011;39139;53.144;6.244;2022-10-16T04:54:46;2.78;;;1.13;;
51732;SDS011;39139;53.144;6.244;2022-10-16T04:57:12;4.82;;;0.93;;
51732;SDS011;39139;53.144;6.244;2022-10-16T04:59:38;2.10;;;1.10;;
51732;SDS011;39139;53.144;6.244;2022-10-16T05:02:03;6.57;;;1.33;;
51732;SDS011;39139;53.144;6.244;2022-10-16T05:04:29;3.83;;;1.25;;
51732;SDS011;39139;53.144;6.244;2022-10-16T05:06:54;3.70;;;1.13;;
51732;SDS011;39139;53.144;6.244;2022-10-16T05:09:20;3.28;;;1.00;;
51732;SDS011;39139;53.144;6.244;2022-10-16T05:11:46;4.63;;;1.30;;
51732;SDS011;39139;53.144;6.244;2022-10-16T05:14:11;2.70;;;1.67;;
51732;SDS011;39139;53.144;6.244;2022-10-16T05:16:37;3.03;;;1.30;;
51732;SDS011;39139;53.144;6.244;2022-10-16T05:19:02;3.10;;;1.52;;
51732;SDS011;39139;53.144;6.244;2022-10-16T05:21:28;2.50;;;1.58;;
51732;SDS011;39139;53.144;6.244;2022-10-16T05:23:54;3.08;;;2.10;;
51732;SDS011;39139;53.144;6.244;2022-10-16T05:26:20;9.70;;;2.10;;
51732;SDS011;39139;53.144;6.244;2022-10-16T05:28:46;8.27;;;2.13;;
51732;SDS011;39139;53.144;6.244;2022-10-16T05:31:12;2.22;;;1.75;;
51732;SDS011;39139;53.144;6.244;2022-10-16T05:33:37;2.40;;;1.70;;
51732;SDS011;39139;53.144;6.244;2022-10-16T05:36:04;6.93;;;1.92;;
51732;SDS011;39139;53.144;6.244;2022-10-16T05:38:31;6.88;;;2.58;;
51732;SDS011;39139;53.144;6.244;2022-10-16T05:40:56;2.63;;;1.73;;
51732;SDS011;39139;53.144;6.244;2022-10-16T05:43:23;5.90;;;2.05;;
51732;SDS011;39139;53.144;6.244;2022-10-16T05:45:58;2.85;;;2.10;;
51732;SDS011;39139;53.144;6.244;2022-10-16T05:48:26;4.47;;;1.75;;
51732;SDS011;39139;53.144;6.244;2022-10-16T05:50:59;4.57;;;1.65;;
51732;SDS011;39139;53.144;6.244;2022-10-16T05:53:30;4.43;;;2.05;;
51732;SDS011;39139;53.144;6.244;2022-10-16T05:55:57;3.85;;;1.80;;
51732;SDS011;39139;53.144;6.244;2022-10-16T05:58:23;3.65;;;1.80;;
51732;SDS011;39139;53.144;6.244;2022-10-16T06:00:54;5.35;;;1.80;;
51732;SDS011;39139;53.144;6.244;2022-10-16T06:03:22;4.30;;;1.73;;
51732;SDS011;39139;53.144;6.244;2022-10-16T06:05:48;5.88;;;1.92;;
51732;SDS011;39139;53.144;6.244;2022-10-16T06:08:14;7.00;;;2.42;;
51732;SDS011;39139;53.144;6.244;2022-10-16T06:10:39;4.30;;;2.30;;
51732;SDS011;39139;53.144;6.244;2022-10-16T06:13:05;4.55;;;2.15;;
51732;SDS011;39139;53.144;6.244;2022-10-16T06:15:31;6.10;;;2.55;;
51732;SDS011;39139;53.144;6.244;2022-10-16T06:17:57;5.63;;;2.00;;
51732;SDS011;39139;53.144;6.244;2022-10-16T06:20:22;3.38;;;2.50;;
51732;SDS011;39139;53.144;6.244;2022-10-16T06:22:48;2.47;;;2.05;;
51732;SDS011;39139;53.144;6.244;2022-10-16T06:25:13;8.90;;;2.13;;
51732;SDS011;39139;53.144;6.244;2022-10-16T06:27:39;5.68;;;2.30;;
51732;SDS011;39139;53.144;6.244;2022-10-16T06:30:06;5.22;;;2.20;;
51732;SDS011;39139;53.144;6.244;2022-10-16T06:32:32;2.40;;;2.13;;
51732;SDS011;39139;53.144;6.244;2022-10-16T06:34:58;4.65;;;2.90;;
51732;SDS011;39139;53.144;6.244;2022-10-16T06:37:23;5.50;;;1.85;;
51732;SDS011;39139;53.144;6.244;2022-10-16T06:39:50;7.05;;;2.35;;
51732;SDS011;39139;53.144;6.244;2022-10-16T06:42:19;6.28;;;2.70;;
51732;SDS011;39139;53.144;6.244;2022-10-16T06:44:44;4.00;;;2.40;;
51732;SDS011;39139;53.144;6.244;2022-10-16T06:47:10;6.60;;;2.25;;
51732;SDS011;39139;53.144;6.244;2022-10-16T06:49:36;3.08;;;2.30;;
51732;SDS011;39139;53.144;6.244;2022-10-16T06:52:01;5.70;;;1.77;;
51732;SDS011;39139;53.144;6.244;2022-10-16T06:54:27;3.08;;;1.90;;
51732;SDS011;39139;53.144;6.244;2022-10-16T06:56:53;2.50;;;1.75;;
51732;SDS011;39139;53.144;6.244;2022-10-16T06:59:20;3.75;;;1.92;;
51732;SDS011;39139;53.144;6.244;2022-10-16T07:01:46;4.05;;;1.65;;
51732;SDS011;39139;53.144;6.244;2022-10-16T07:04:11;5.18;;;1.80;;
51732;SDS011;39139;53.144;6.244;2022-10-16T07:06:37;2.97;;;1.77;;
51732;SDS011;39139;53.144;6.244;2022-10-16T07:09:04;4.22;;;2.00;;
51732;SDS011;39139;53.144;6.244;2022-10-16T07:11:31;6.10;;;2.03;;
51732;SDS011;39139;53.144;6.244;2022-10-16T07:13:57;2.95;;;1.65;;
51732;SDS011;39139;53.144;6.244;2022-10-16T07:16:27;3.75;;;1.55;;
51732;SDS011;39139;53.144;6.244;2022-10-16T07:18:55;7.90;;;2.05;;
51732;SDS011;39139;53.144;6.244;2022-10-16T07:21:25;5.57;;;1.98;;
51732;SDS011;39139;53.144;6.244;2022-10-16T07:23:54;3.83;;;1.65;;
51732;SDS011;39139;53.144;6.244;2022-10-16T07:26:22;2.38;;;1.45;;
51732;SDS011;39139;53.144;6.244;2022-10-16T07:28:49;7.63;;;2.42;;
51732;SDS011;39139;53.144;6.244;2022-10-16T07:31:16;3.83;;;1.70;;
51732;SDS011;39139;53.144;6.244;2022-10-16T07:33:43;6.38;;;1.80;;
51732;SDS011;39139;53.144;6.244;2022-10-16T07:36:10;3.38;;;2.03;;
51732;SDS011;39139;53.144;6.244;2022-10-16T07:38:37;2.88;;;1.80;;
51732;SDS011;39139;53.144;6.244;2022-10-16T07:41:04;6.75;;;2.00;;
51732;SDS011;39139;53.144;6.244;2022-10-16T07:43:35;3.72;;;1.77;;
51732;SDS011;39139;53.144;6.244;2022-10-16T07:46:00;4.43;;;1.95;;
51732;SDS011;39139;53.144;6.244;2022-10-16T07:48:27;6.25;;;2.00;;
51732;SDS011;39139;53.144;6.244;2022-10-16T07:50:57;3.90;;;1.75;;
51732;SDS011;39139;53.144;6.244;2022-10-16T07:53:24;2.40;;;1.83;;
51732;SDS011;39139;53.144;6.244;2022-10-16T07:55:50;8.82;;;2.55;;
51732;SDS011;39139;53.144;6.244;2022-10-16T07:58:15;7.47;;;2.38;;
51732;SDS011;39139;53.144;6.244;2022-10-16T08:00:41;4.55;;;2.45;;
51732;SDS011;39139;53.144;6.244;2022-10-16T08:03:07;3.80;;;1.60;;
51732;SDS011;39139;53.144;6.244;2022-10-16T08:05:33;7.03;;;1.88;;
51732;SDS011;39139;53.144;6.244;2022-10-16T08:07:59;3.58;;;1.90;;
51732;SDS011;39139;53.144;6.244;2022-10-16T08:10:27;3.58;;;2.60;;
51732;SDS011;39139;53.144;6.244;2022-10-16T08:12:53;3.80;;;2.28;;
51732;SDS011;39139;53.144;6.244;2022-10-16T08:15:19;2.88;;;2.08;;
51732;SDS011;39139;53.144;6.244;2022-10-16T08:17:58;5.38;;;2.28;;
51732;SDS011;39139;53.144;6.244;2022-10-16T08:20:29;6.38;;;2.17;;
51732;SDS011;39139;53.144;6.244;2022-10-16T08:22:55;4.15;;;2.20;;
51732;SDS011;39139;53.144;6.244;2022-10-16T08:25:21;3.00;;;1.40;;
51732;SDS011;39139;53.144;6.244;2022-10-16T08:27:47;3.72;;;1.90;;
51732;SDS011;39139;53.144;6.244;2022-10-16T08:30:13;4.63;;;1.27;;
51732;SDS011;39139;53.144;6.244;2022-10-16T08:32:39;3.70;;;1.30;;
51732;SDS011;39139;53.144;6.244;2022-10-16T08:35:07;3.85;;;1.40;;
51732;SDS011;39139;53.144;6.244;2022-10-16T08:37:34;4.20;;;0.82;;
51732;SDS011;39139;53.144;6.244;2022-10-16T08:40:00;4.20;;;1.15;;
51732;SDS011;39139;53.144;6.244;2022-10-16T08:42:47;3.05;;;0.95;;
51732;SDS011;39139;53.144;6.244;2022-10-16T08:48:30;3.00;;;1.05;;
51732;SDS011;39139;53.144;6.244;2022-10-16T08:51:08;3.95;;;1.02;;
51732;SDS011;39139;53.144;6.244;2022-10-16T08:53:49;1.98;;;0.73;;
51732;SDS011;39139;53.144;6.244;2022-10-16T08:56:18;6.22;;;1.50;;
51732;SDS011;39139;53.144;6.244;2022-10-16T08:58:44;3.90;;;0.95;;
51732;SDS011;39139;53.144;6.244;2022-10-16T09:01:12;5.22;;;1.08;;
51732;SDS011;39139;53.144;6.244;2022-10-16T09:06:46;3.83;;;1.13;;
51732;SDS011;39139;53.144;6.244;2022-10-16T09:15:07;8.45;;;1.80;;
51732;SDS011;39139;53.144;6.244;2022-10-16T09:17:58;5.13;;;0.85;;
51732;SDS011;39139;53.144;6.244;2022-10-16T09:20:51;6.90;;;1.50;;
51732;SDS011;39139;53.144;6.244;2022-10-16T09:23:28;6.95;;;1.42;;
51732;SDS011;39139;53.144;6.244;2022-10-16T09:25:55;5.07;;;1.20;;
51732;SDS011;39139;53.144;6.244;2022-10-16T09:28:23;9.52;;;1.40;;
51732;SDS011;39139;53.144;6.244;2022-10-16T09:30:49;3.90;;;1.13;;
51732;SDS011;39139;53.144;6.244;2022-10-16T09:33:15;10.95;;;1.73;;
51732;SDS011;39139;53.144;6.244;2022-10-16T09:35:43;5.28;;;1.52;;
51732;SDS011;39139;53.144;6.244;2022-10-16T09:38:20;7.95;;;1.33;;
51732;SDS011;39139;53.144;6.244;2022-10-16T09:40:47;10.55;;;1.30;;
51732;SDS011;39139;53.144;6.244;2022-10-16T09:43:26;8.10;;;1.63;;
51732;SDS011;39139;53.144;6.244;2022-10-16T09:46:06;6.60;;;2.03;;
51732;SDS011;39139;53.144;6.244;2022-10-16T09:48:37;11.98;;;1.83;;
51732;SDS011;39139;53.144;6.244;2022-10-16T09:51:16;7.50;;;1.33;;
51732;SDS011;39139;53.144;6.244;2022-10-16T09:53:48;9.43;;;1.50;;
51732;SDS011;39139;53.144;6.244;2022-10-16T09:56:26;10.02;;;1.48;;
51732;SDS011;39139;53.144;6.244;2022-10-16T09:58:55;8.30;;;1.48;;
51732;SDS011;39139;53.144;6.244;2022-10-16T10:01:24;15.07;;;2.40;;
51732;SDS011;39139;53.144;6.244;2022-10-16T10:04:03;7.35;;;1.60;;
51732;SDS011;39139;53.144;6.244;2022-10-16T10:06:30;11.75;;;2.05;;
51732;SDS011;39139;53.144;6.244;2022-10-16T10:11:36;8.43;;;1.75;;
51732;SDS011;39139;53.144;6.244;2022-10-16T10:14:17;8.10;;;1.58;;
51732;SDS011;39139;53.144;6.244;2022-10-16T10:16:50;6.55;;;1.65;;
51732;SDS011;39139;53.144;6.244;2022-10-16T10:19:21;8.02;;;1.50;;
51732;SDS011;39139;53.144;6.244;2022-10-16T10:21:49;7.10;;;1.50;;
51732;SDS011;39139;53.144;6.244;2022-10-16T10:24:17;10.00;;;1.98;;
51732;SDS011;39139;53.144;6.244;2022-10-16T10:32:03;9.63;;;1.88;;
51732;SDS011;39139;53.144;6.244;2022-10-16T10:37:50;10.35;;;1.73;;
51732;SDS011;39139;53.144;6.244;2022-10-16T10:43:42;12.02;;;2.53;;
51732;SDS011;39139;53.144;6.244;2022-10-16T10:46:36;8.48;;;2.30;;
51732;SDS011;39139;53.144;6.244;2022-10-16T10:54:49;7.90;;;1.80;;
51732;SDS011;39139;53.144;6.244;2022-10-16T10:57:39;11.05;;;1.85;;
51732;SDS011;39139;53.144;6.244;2022-10-16T11:03:09;9.38;;;1.85;;
51732;SDS011;39139;53.144;6.244;2022-10-16T11:08:23;8.60;;;2.38;;
51732;SDS011;39139;53.144;6.244;2022-10-16T11:11:02;9.32;;;1.98;;
51732;SDS011;39139;53.144;6.244;2022-10-16T11:16:28;9.00;;;1.80;;
51732;SDS011;39139;53.144;6.244;2022-10-16T11:18:58;5.18;;;1.08;;
51732;SDS011;39139;53.144;6.244;2022-10-16T11:21:32;13.32;;;1.85;;
51732;SDS011;39139;53.144;6.244;2022-10-16T11:24:04;12.77;;;2.17;;
51732;SDS011;39139;53.144;6.244;2022-10-16T11:26:39;11.45;;;1.92;;
51732;SDS011;39139;53.144;6.244;2022-10-16T11:29:15;4.82;;;1.40;;
51732;SDS011;39139;53.144;6.244;2022-10-16T11:31:49;13.60;;;2.05;;
51732;SDS011;39139;53.144;6.244;2022-10-16T11:34:25;6.13;;;1.48;;
51732;SDS011;39139;53.144;6.244;2022-10-16T11:37:14;8.52;;;1.67;;
51732;SDS011;39139;53.144;6.244;2022-10-16T11:39:45;9.93;;;1.60;;
51732;SDS011;39139;53.144;6.244;2022-10-16T11:42:32;8.95;;;1.55;;
51732;SDS011;39139;53.144;6.244;2022-10-16T11:48:04;10.15;;;1.85;;
51732;SDS011;39139;53.144;6.244;2022-10-16T11:56:45;11.70;;;1.88;;
51732;SDS011;39139;53.144;6.244;2022-10-16T11:59:17;10.88;;;1.92;;
51732;SDS011;39139;53.144;6.244;2022-10-16T12:07:14;5.88;;;1.25;;
51732;SDS011;39139;53.144;6.244;2022-10-16T12:09:44;11.10;;;2.03;;
51732;SDS011;39139;53.144;6.244;2022-10-16T12:15:02;13.98;;;2.20;;
51732;SDS011;39139;53.144;6.244;2022-10-16T12:17:49;15.23;;;2.30;;
51732;SDS011;39139;53.144;6.244;2022-10-16T12:20:20;12.73;;;1.70;;
51732;SDS011;39139;53.144;6.244;2022-10-16T12:23:00;17.48;;;2.30;;
51732;SDS011;39139;53.144;6.244;2022-10-16T12:28:38;16.83;;;2.60;;
51732;SDS011;39139;53.144;6.244;2022-10-16T12:30:52;10.95;;;2.80;;
51732;SDS011;39139;53.144;6.244;2022-10-16T12:34:14;10.40;;;2.22;;
51732;SDS011;39139;53.144;6.244;2022-10-16T12:36:27;10.00;;;2.22;;
51732;SDS011;39139;53.144;6.244;2022-10-16T12:38:53;10.88;;;2.15;;
51732;SDS011;39139;53.144;6.244;2022-10-16T12:41:26;14.30;;;3.15;;
51732;SDS011;39139;53.144;6.244;2022-10-16T12:44:05;9.70;;;1.90;;
51732;SDS011;39139;53.144;6.244;2022-10-16T12:46:46;11.10;;;1.65;;
51732;SDS011;39139;53.144;6.244;2022-10-16T12:51:37;8.65;;;1.27;;
51732;SDS011;39139;53.144;6.244;2022-10-16T12:54:05;9.80;;;1.88;;
51732;SDS011;39139;53.144;6.244;2022-10-16T13:05:32;9.02;;;2.28;;
51732;SDS011;39139;53.144;6.244;2022-10-16T13:11:16;12.10;;;1.70;;
51732;SDS011;39139;53.144;6.244;2022-10-16T13:27:18;12.68;;;1.77;;
51732;SDS011;39139;53.144;6.244;2022-10-16T13:29:54;11.60;;;1.50;;
51732;SDS011;39139;53.144;6.244;2022-10-16T13:32:37;13.23;;;1.63;;
51732;SDS011;39139;53.144;6.244;2022-10-16T13:35:03;8.57;;;1.50;;
51732;SDS011;39139;53.144;6.244;2022-10-16T13:37:44;14.98;;;1.45;;
51732;SDS011;39139;53.144;6.244;2022-10-16T13:40:23;10.55;;;2.08;;
51732;SDS011;39139;53.144;6.244;2022-10-16T13:42:50;5.35;;;1.55;;
51732;SDS011;39139;53.144;6.244;2022-10-16T13:45:21;9.20;;;1.70;;
51732;SDS011;39139;53.144;6.244;2022-10-16T13:47:48;6.55;;;1.90;;
51732;SDS011;39139;53.144;6.244;2022-10-16T13:50:16;10.23;;;1.13;;
51732;SDS011;39139;53.144;6.244;2022-10-16T13:52:43;8.07;;;1.20;;
51732;SDS011;39139;53.144;6.244;2022-10-16T13:55:16;8.05;;;1.77;;
51732;SDS011;39139;53.144;6.244;2022-10-16T13:57:43;12.48;;;1.70;;
51732;SDS011;39139;53.144;6.244;2022-10-16T14:00:22;10.90;;;1.80;;
51732;SDS011;39139;53.144;6.244;2022-10-16T14:03:01;10.32;;;1.55;;
51732;SDS011;39139;53.144;6.244;2022-10-16T14:05:29;8.73;;;1.63;;
51732;SDS011;39139;53.144;6.244;2022-10-16T14:07:54;11.32;;;1.67;;
51732;SDS011;39139;53.144;6.244;2022-10-16T14:10:22;10.05;;;1.73;;
51732;SDS011;39139;53.144;6.244;2022-10-16T14:12:54;11.50;;;1.40;;
51732;SDS011;39139;53.144;6.244;2022-10-16T14:15:31;13.45;;;1.80;;
51732;SDS011;39139;53.144;6.244;2022-10-16T14:17:59;12.13;;;1.77;;
51732;SDS011;39139;53.144;6.244;2022-10-16T14:20:26;10.10;;;1.50;;
51732;SDS011;39139;53.144;6.244;2022-10-16T14:25:25;11.60;;;1.63;;
51732;SDS011;39139;53.144;6.244;2022-10-16T14:27:57;11.43;;;2.10;;
51732;SDS011;39139;53.144;6.244;2022-10-16T14:30:23;7.13;;;1.30;;
51732;SDS011;39139;53.144;6.244;2022-10-16T14:32:53;10.85;;;1.58;;
51732;SDS011;39139;53.144;6.244;2022-10-16T14:38:03;12.52;;;1.73;;
51732;SDS011;39139;53.144;6.244;2022-10-16T14:40:31;7.45;;;1.35;;
51732;SDS011;39139;53.144;6.244;2022-10-16T14:43:00;11.88;;;1.40;;
51732;SDS011;39139;53.144;6.244;2022-10-16T14:45:28;14.70;;;1.90;;
51732;SDS011;39139;53.144;6.244;2022-10-16T14:47:57;12.30;;;2.13;;
51732;SDS011;39139;53.144;6.244;2022-10-16T14:50:26;6.85;;;1.27;;
51732;SDS011;39139;53.144;6.244;2022-10-16T14:52:52;13.55;;;1.20;;
51732;SDS011;39139;53.144;6.244;2022-10-16T14:55:18;7.97;;;1.90;;
51732;SDS011;39139;53.144;6.244;2022-10-16T14:57:44;9.90;;;1.10;;
51732;SDS011;39139;53.144;6.244;2022-10-16T15:00:16;8.57;;;1.73;;
51732;SDS011;39139;53.144;6.244;2022-10-16T15:02:46;6.97;;;1.65;;
51732;SDS011;39139;53.144;6.244;2022-10-16T15:05:18;7.85;;;1.90;;
51732;SDS011;39139;53.144;6.244;2022-10-16T15:07:47;11.35;;;2.20;;
51732;SDS011;39139;53.144;6.244;2022-10-16T15:10:14;9.60;;;1.52;;
51732;SDS011;39139;53.144;6.244;2022-10-16T15:12:41;10.45;;;1.48;;
51732;SDS011;39139;53.144;6.244;2022-10-16T15:17:52;7.75;;;1.58;;
51732;SDS011;39139;53.144;6.244;2022-10-16T15:20:21;12.43;;;1.40;;
51732;SDS011;39139;53.144;6.244;2022-10-16T15:22:52;11.05;;;1.88;;
51732;SDS011;39139;53.144;6.244;2022-10-16T15:27:55;11.65;;;1.60;;
51732;SDS011;39139;53.144;6.244;2022-10-16T15:30:20;12.52;;;1.30;;
51732;SDS011;39139;53.144;6.244;2022-10-16T15:32:46;10.40;;;1.27;;
51732;SDS011;39139;53.144;6.244;2022-10-16T15:35:12;9.75;;;1.52;;
51732;SDS011;39139;53.144;6.244;2022-10-16T15:37:37;10.13;;;1.80;;
51732;SDS011;39139;53.144;6.244;2022-10-16T15:40:03;8.52;;;1.55;;
51732;SDS011;39139;53.144;6.244;2022-10-16T15:42:29;6.57;;;1.48;;
51732;SDS011;39139;53.144;6.244;2022-10-16T15:44:55;7.03;;;1.52;;
51732;SDS011;39139;53.144;6.244;2022-10-16T15:47:20;6.82;;;1.38;;
51732;SDS011;39139;53.144;6.244;2022-10-16T15:49:46;5.88;;;1.17;;
51732;SDS011;39139;53.144;6.244;2022-10-16T15:52:12;5.38;;;0.93;;
51732;SDS011;39139;53.144;6.244;2022-10-16T15:54:38;7.38;;;2.00;;
51732;SDS011;39139;53.144;6.244;2022-10-16T15:57:03;12.48;;;1.65;;
51732;SDS011;39139;53.144;6.244;2022-10-16T15:59:29;10.32;;;1.85;;
51732;SDS011;39139;53.144;6.244;2022-10-16T16:01:55;11.70;;;1.60;;
51732;SDS011;39139;53.144;6.244;2022-10-16T16:04:21;13.57;;;1.70;;
51732;SDS011;39139;53.144;6.244;2022-10-16T16:06:46;11.60;;;1.50;;
51732;SDS011;39139;53.144;6.244;2022-10-16T16:09:13;11.70;;;1.92;;
51732;SDS011;39139;53.144;6.244;2022-10-16T16:11:39;10.25;;;1.40;;
51732;SDS011;39139;53.144;6.244;2022-10-16T16:14:06;10.68;;;1.35;;
51732;SDS011;39139;53.144;6.244;2022-10-16T16:16:32;7.20;;;0.95;;
51732;SDS011;39139;53.144;6.244;2022-10-16T16:19:02;7.65;;;1.60;;
51732;SDS011;39139;53.144;6.244;2022-10-16T16:21:32;8.63;;;2.67;;
51732;SDS011;39139;53.144;6.244;2022-10-16T16:23:58;9.82;;;1.80;;
51732;SDS011;39139;53.144;6.244;2022-10-16T16:26:28;7.40;;;1.60;;
51732;SDS011;39139;53.144;6.244;2022-10-16T16:28:59;9.90;;;3.30;;
51732;SDS011;39139;53.144;6.244;2022-10-16T16:31:28;12.07;;;3.90;;
51732;SDS011;39139;53.144;6.244;2022-10-16T16:33:55;12.05;;;3.15;;
51732;SDS011;39139;53.144;6.244;2022-10-16T16:36:22;14.65;;;2.22;;
51732;SDS011;39139;53.144;6.244;2022-10-16T16:38:48;7.43;;;1.90;;
51732;SDS011;39139;53.144;6.244;2022-10-16T16:41:15;10.57;;;1.73;;
51732;SDS011;39139;53.144;6.244;2022-10-16T16:43:45;8.80;;;1.70;;
51732;SDS011;39139;53.144;6.244;2022-10-16T16:46:13;12.80;;;2.05;;
51732;SDS011;39139;53.144;6.244;2022-10-16T16:48:39;9.65;;;2.33;;
51732;SDS011;39139;53.144;6.244;2022-10-16T16:51:06;10.43;;;3.25;;